sensor_id;sensor_type;location;lat;lon;timestamp;P1;durP1;ratioP1;P2;durP2;ratioP2
48574;SDS011;34352;51.084;3.712;2022-08-19T00:01:32;68.82;;;42.58;;
48574;SDS011;34352;51.084;3.712;2022-08-19T00:04:01;64.53;;;42.30;;
48574;SDS011;34352;51.084;3.712;2022-08-19T00:06:29;63.78;;;39.45;;
48574;SDS011;34352;51.084;3.712;2022-08-19T00:08:56;66.38;;;42.35;;
48574;SDS011;34352;51.084;3.712;2022-08-19T00:11:23;64.75;;;40.90;;
48574;SDS011;34352;51.084;3.712;2022-08-19T00:13:50;65.35;;;38.97;;
48574;SDS011;34352;51.084;3.712;2022-08-19T00:16:17;60.53;;;39.80;;
48574;SDS011;34352;51.084;3.712;2022-08-19T00:18:46;62.95;;;38.42;;
48574;SDS011;34352;51.084;3.712;2022-08-19T00:21:13;59.83;;;39.42;;
48574;SDS011;34352;51.084;3.712;2022-08-19T00:23:40;63.00;;;39.17;;
48574;SDS011;34352;51.084;3.712;2022-08-19T00:26:08;61.58;;;38.85;;
48574;SDS011;34352;51.084;3.712;2022-08-19T00:28:35;66.65;;;40.72;;
48574;SDS011;34352;51.084;3.712;2022-08-19T00:31:09;69.53;;;42.15;;
48574;SDS011;34352;51.084;3.712;2022-08-19T00:33:35;68.35;;;40.55;;
48574;SDS011;34352;51.084;3.712;2022-08-19T00:36:05;64.90;;;40.88;;
48574;SDS011;34352;51.084;3.712;2022-08-19T00:38:36;65.93;;;40.22;;
48574;SDS011;34352;51.084;3.712;2022-08-19T00:41:06;65.63;;;41.08;;
48574;SDS011;34352;51.084;3.712;2022-08-19T00:43:32;66.70;;;40.53;;
48574;SDS011;34352;51.084;3.712;2022-08-19T00:45:58;63.90;;;40.05;;
48574;SDS011;34352;51.084;3.712;2022-08-19T00:48:24;68.45;;;41.00;;
48574;SDS011;34352;51.084;3.712;2022-08-19T00:50:50;70.85;;;42.10;;
48574;SDS011;34352;51.084;3.712;2022-08-19T00:53:22;71.13;;;42.97;;
48574;SDS011;34352;51.084;3.712;2022-08-19T00:55:52;79.22;;;43.38;;
48574;SDS011;34352;51.084;3.712;2022-08-19T00:58:23;67.43;;;41.97;;
48574;SDS011;34352;51.084;3.712;2022-08-19T01:00:53;71.60;;;42.10;;
48574;SDS011;34352;51.084;3.712;2022-08-19T01:03:20;69.93;;;42.22;;
48574;SDS011;34352;51.084;3.712;2022-08-19T01:05:47;67.72;;;41.72;;
48574;SDS011;34352;51.084;3.712;2022-08-19T01:08:16;65.82;;;40.75;;
48574;SDS011;34352;51.084;3.712;2022-08-19T01:10:45;59.88;;;38.97;;
48574;SDS011;34352;51.084;3.712;2022-08-19T01:13:20;65.53;;;39.50;;
48574;SDS011;34352;51.084;3.712;2022-08-19T01:16:11;65.75;;;39.05;;
48574;SDS011;34352;51.084;3.712;2022-08-19T01:18:39;60.65;;;36.17;;
48574;SDS011;34352;51.084;3.712;2022-08-19T01:21:27;58.75;;;34.97;;
48574;SDS011;34352;51.084;3.712;2022-08-19T01:24:00;61.22;;;37.47;;
48574;SDS011;34352;51.084;3.712;2022-08-19T01:26:27;60.42;;;35.75;;
48574;SDS011;34352;51.084;3.712;2022-08-19T01:28:55;57.63;;;36.30;;
48574;SDS011;34352;51.084;3.712;2022-08-19T01:31:24;64.22;;;36.72;;
48574;SDS011;34352;51.084;3.712;2022-08-19T01:33:56;60.92;;;36.28;;
48574;SDS011;34352;51.084;3.712;2022-08-19T01:38:57;58.22;;;35.90;;
48574;SDS011;34352;51.084;3.712;2022-08-19T01:41:23;60.33;;;34.70;;
48574;SDS011;34352;51.084;3.712;2022-08-19T01:43:49;60.17;;;35.10;;
48574;SDS011;34352;51.084;3.712;2022-08-19T01:46:16;59.28;;;36.30;;
48574;SDS011;34352;51.084;3.712;2022-08-19T01:48:42;59.38;;;35.20;;
48574;SDS011;34352;51.084;3.712;2022-08-19T01:51:09;57.67;;;34.55;;
48574;SDS011;34352;51.084;3.712;2022-08-19T01:53:37;56.15;;;34.30;;
48574;SDS011;34352;51.084;3.712;2022-08-19T01:56:03;55.72;;;32.92;;
48574;SDS011;34352;51.084;3.712;2022-08-19T01:58:32;58.70;;;34.58;;
48574;SDS011;34352;51.084;3.712;2022-08-19T02:01:06;58.85;;;33.95;;
48574;SDS011;34352;51.084;3.712;2022-08-19T02:03:32;61.22;;;33.10;;
48574;SDS011;34352;51.084;3.712;2022-08-19T02:06:00;58.95;;;33.00;;
48574;SDS011;34352;51.084;3.712;2022-08-19T02:08:28;53.70;;;32.70;;
48574;SDS011;34352;51.084;3.712;2022-08-19T02:10:54;53.38;;;31.15;;
48574;SDS011;34352;51.084;3.712;2022-08-19T02:13:22;57.13;;;32.47;;
48574;SDS011;34352;51.084;3.712;2022-08-19T02:15:48;56.08;;;31.65;;
48574;SDS011;34352;51.084;3.712;2022-08-19T02:18:14;58.33;;;31.40;;
48574;SDS011;34352;51.084;3.712;2022-08-19T02:20:40;55.72;;;31.15;;
48574;SDS011;34352;51.084;3.712;2022-08-19T02:23:08;57.30;;;30.45;;
48574;SDS011;34352;51.084;3.712;2022-08-19T02:25:35;54.17;;;30.20;;
48574;SDS011;34352;51.084;3.712;2022-08-19T02:28:03;56.53;;;31.50;;
48574;SDS011;34352;51.084;3.712;2022-08-19T02:30:31;51.25;;;30.58;;
48574;SDS011;34352;51.084;3.712;2022-08-19T02:32:57;51.58;;;29.98;;
48574;SDS011;34352;51.084;3.712;2022-08-19T02:35:25;56.95;;;30.80;;
48574;SDS011;34352;51.084;3.712;2022-08-19T02:37:52;49.00;;;29.67;;
48574;SDS011;34352;51.084;3.712;2022-08-19T02:40:36;53.10;;;30.17;;
48574;SDS011;34352;51.084;3.712;2022-08-19T02:43:02;56.08;;;30.20;;
48574;SDS011;34352;51.084;3.712;2022-08-19T02:45:34;48.13;;;28.58;;
48574;SDS011;34352;51.084;3.712;2022-08-19T02:48:01;51.58;;;29.17;;
48574;SDS011;34352;51.084;3.712;2022-08-19T02:50:27;52.08;;;29.67;;
48574;SDS011;34352;51.084;3.712;2022-08-19T02:52:53;48.42;;;28.60;;
48574;SDS011;34352;51.084;3.712;2022-08-19T02:55:19;52.72;;;27.30;;
48574;SDS011;34352;51.084;3.712;2022-08-19T02:57:46;51.33;;;27.52;;
48574;SDS011;34352;51.084;3.712;2022-08-19T03:00:16;51.08;;;27.58;;
48574;SDS011;34352;51.084;3.712;2022-08-19T03:02:43;45.38;;;26.70;;
48574;SDS011;34352;51.084;3.712;2022-08-19T03:05:09;50.17;;;27.45;;
48574;SDS011;34352;51.084;3.712;2022-08-19T03:07:37;53.17;;;27.55;;
48574;SDS011;34352;51.084;3.712;2022-08-19T03:10:04;51.28;;;27.73;;
48574;SDS011;34352;51.084;3.712;2022-08-19T03:12:35;46.35;;;28.80;;
48574;SDS011;34352;51.084;3.712;2022-08-19T03:15:03;56.88;;;30.50;;
48574;SDS011;34352;51.084;3.712;2022-08-19T03:17:34;48.72;;;28.80;;
48574;SDS011;34352;51.084;3.712;2022-08-19T03:20:00;53.13;;;30.42;;
48574;SDS011;34352;51.084;3.712;2022-08-19T03:22:26;51.58;;;29.77;;
48574;SDS011;34352;51.084;3.712;2022-08-19T03:24:52;51.60;;;29.67;;
48574;SDS011;34352;51.084;3.712;2022-08-19T03:27:18;50.88;;;29.98;;
48574;SDS011;34352;51.084;3.712;2022-08-19T03:29:44;49.00;;;28.35;;
48574;SDS011;34352;51.084;3.712;2022-08-19T03:32:10;49.25;;;27.95;;
48574;SDS011;34352;51.084;3.712;2022-08-19T03:34:38;57.65;;;28.30;;
48574;SDS011;34352;51.084;3.712;2022-08-19T03:37:05;49.60;;;27.25;;
48574;SDS011;34352;51.084;3.712;2022-08-19T03:39:33;45.42;;;27.00;;
48574;SDS011;34352;51.084;3.712;2022-08-19T03:42:02;46.15;;;26.77;;
48574;SDS011;34352;51.084;3.712;2022-08-19T03:44:28;47.72;;;26.58;;
48574;SDS011;34352;51.084;3.712;2022-08-19T03:46:55;44.50;;;26.45;;
48574;SDS011;34352;51.084;3.712;2022-08-19T03:49:24;46.00;;;25.08;;
48574;SDS011;34352;51.084;3.712;2022-08-19T03:51:57;44.17;;;26.40;;
48574;SDS011;34352;51.084;3.712;2022-08-19T03:54:25;44.38;;;25.30;;
48574;SDS011;34352;51.084;3.712;2022-08-19T03:56:53;44.80;;;25.70;;
48574;SDS011;34352;51.084;3.712;2022-08-19T03:59:22;42.00;;;25.13;;
48574;SDS011;34352;51.084;3.712;2022-08-19T04:01:51;45.03;;;24.92;;
48574;SDS011;34352;51.084;3.712;2022-08-19T04:04:19;43.42;;;24.60;;
48574;SDS011;34352;51.084;3.712;2022-08-19T04:06:45;44.00;;;24.58;;
48574;SDS011;34352;51.084;3.712;2022-08-19T04:09:12;47.25;;;24.77;;
48574;SDS011;34352;51.084;3.712;2022-08-19T04:11:39;41.05;;;23.88;;
48574;SDS011;34352;51.084;3.712;2022-08-19T04:14:08;47.80;;;24.42;;
48574;SDS011;34352;51.084;3.712;2022-08-19T04:16:35;45.88;;;24.95;;
48574;SDS011;34352;51.084;3.712;2022-08-19T04:19:02;42.65;;;24.95;;
48574;SDS011;34352;51.084;3.712;2022-08-19T04:21:29;44.03;;;24.65;;
48574;SDS011;34352;51.084;3.712;2022-08-19T04:23:56;44.80;;;22.98;;
48574;SDS011;34352;51.084;3.712;2022-08-19T04:26:25;38.85;;;23.80;;
48574;SDS011;34352;51.084;3.712;2022-08-19T04:28:52;41.13;;;24.42;;
48574;SDS011;34352;51.084;3.712;2022-08-19T04:31:23;46.67;;;24.10;;
48574;SDS011;34352;51.084;3.712;2022-08-19T04:33:52;48.10;;;25.50;;
48574;SDS011;34352;51.084;3.712;2022-08-19T04:36:24;48.13;;;25.67;;
48574;SDS011;34352;51.084;3.712;2022-08-19T04:38:58;43.47;;;25.58;;
48574;SDS011;34352;51.084;3.712;2022-08-19T04:41:26;45.72;;;24.30;;
48574;SDS011;34352;51.084;3.712;2022-08-19T04:44:11;45.03;;;24.58;;
48574;SDS011;34352;51.084;3.712;2022-08-19T04:46:44;41.30;;;24.15;;
48574;SDS011;34352;51.084;3.712;2022-08-19T04:49:12;47.60;;;24.92;;
48574;SDS011;34352;51.084;3.712;2022-08-19T04:51:40;45.30;;;23.80;;
48574;SDS011;34352;51.084;3.712;2022-08-19T04:54:08;44.72;;;24.33;;
48574;SDS011;34352;51.084;3.712;2022-08-19T04:56:35;41.53;;;22.75;;
48574;SDS011;34352;51.084;3.712;2022-08-19T04:59:05;44.60;;;23.45;;
48574;SDS011;34352;51.084;3.712;2022-08-19T05:01:32;43.25;;;21.83;;
48574;SDS011;34352;51.084;3.712;2022-08-19T05:03:59;35.92;;;21.20;;
48574;SDS011;34352;51.084;3.712;2022-08-19T05:06:31;39.03;;;21.98;;
48574;SDS011;34352;51.084;3.712;2022-08-19T05:09:00;39.28;;;21.77;;
48574;SDS011;34352;51.084;3.712;2022-08-19T05:11:32;40.75;;;22.95;;
48574;SDS011;34352;51.084;3.712;2022-08-19T05:14:01;36.25;;;21.10;;
48574;SDS011;34352;51.084;3.712;2022-08-19T05:16:27;40.15;;;21.50;;
48574;SDS011;34352;51.084;3.712;2022-08-19T05:18:53;38.10;;;21.00;;
48574;SDS011;34352;51.084;3.712;2022-08-19T05:21:38;47.65;;;22.95;;
48574;SDS011;34352;51.084;3.712;2022-08-19T05:24:24;36.35;;;20.33;;
48574;SDS011;34352;51.084;3.712;2022-08-19T05:26:51;42.95;;;20.85;;
48574;SDS011;34352;51.084;3.712;2022-08-19T05:29:19;45.85;;;22.17;;
48574;SDS011;34352;51.084;3.712;2022-08-19T05:31:46;36.13;;;19.58;;
48574;SDS011;34352;51.084;3.712;2022-08-19T05:34:14;36.45;;;19.92;;
48574;SDS011;34352;51.084;3.712;2022-08-19T05:36:44;36.10;;;19.48;;
48574;SDS011;34352;51.084;3.712;2022-08-19T05:39:16;35.70;;;20.17;;
48574;SDS011;34352;51.084;3.712;2022-08-19T05:41:47;34.65;;;19.98;;
48574;SDS011;34352;51.084;3.712;2022-08-19T05:44:15;30.87;;;19.27;;
48574;SDS011;34352;51.084;3.712;2022-08-19T05:46:45;37.75;;;19.10;;
48574;SDS011;34352;51.084;3.712;2022-08-19T05:49:12;35.83;;;20.23;;
48574;SDS011;34352;51.084;3.712;2022-08-19T05:51:39;33.53;;;19.52;;
48574;SDS011;34352;51.084;3.712;2022-08-19T05:54:05;32.30;;;18.20;;
48574;SDS011;34352;51.084;3.712;2022-08-19T05:56:32;35.05;;;19.90;;
48574;SDS011;34352;51.084;3.712;2022-08-19T05:59:04;32.08;;;18.70;;
48574;SDS011;34352;51.084;3.712;2022-08-19T06:01:36;37.33;;;20.75;;
48574;SDS011;34352;51.084;3.712;2022-08-19T06:04:03;38.15;;;20.67;;
48574;SDS011;34352;51.084;3.712;2022-08-19T06:06:33;38.58;;;20.33;;
48574;SDS011;34352;51.084;3.712;2022-08-19T06:09:03;38.13;;;20.98;;
48574;SDS011;34352;51.084;3.712;2022-08-19T06:11:33;41.63;;;20.33;;
48574;SDS011;34352;51.084;3.712;2022-08-19T06:14:02;43.03;;;21.52;;
48574;SDS011;34352;51.084;3.712;2022-08-19T06:16:39;41.00;;;21.95;;
48574;SDS011;34352;51.084;3.712;2022-08-19T06:19:08;40.97;;;21.20;;
48574;SDS011;34352;51.084;3.712;2022-08-19T06:21:36;42.50;;;21.63;;
48574;SDS011;34352;51.084;3.712;2022-08-19T06:24:05;38.58;;;22.05;;
48574;SDS011;34352;51.084;3.712;2022-08-19T06:26:33;36.90;;;21.42;;
48574;SDS011;34352;51.084;3.712;2022-08-19T06:29:00;34.97;;;20.45;;
48574;SDS011;34352;51.084;3.712;2022-08-19T06:31:27;36.13;;;21.17;;
48574;SDS011;34352;51.084;3.712;2022-08-19T06:33:54;36.22;;;20.70;;
48574;SDS011;34352;51.084;3.712;2022-08-19T06:38:55;33.75;;;20.38;;
48574;SDS011;34352;51.084;3.712;2022-08-19T06:41:24;29.77;;;18.60;;
48574;SDS011;34352;51.084;3.712;2022-08-19T06:43:50;28.80;;;19.10;;
48574;SDS011;34352;51.084;3.712;2022-08-19T06:46:17;29.10;;;17.98;;
48574;SDS011;34352;51.084;3.712;2022-08-19T06:48:44;30.13;;;18.48;;
48574;SDS011;34352;51.084;3.712;2022-08-19T06:51:11;32.97;;;18.92;;
48574;SDS011;34352;51.084;3.712;2022-08-19T06:53:43;29.90;;;19.08;;
48574;SDS011;34352;51.084;3.712;2022-08-19T06:56:15;30.92;;;20.00;;
48574;SDS011;34352;51.084;3.712;2022-08-19T06:58:42;27.60;;;19.17;;
48574;SDS011;34352;51.084;3.712;2022-08-19T07:01:08;28.00;;;18.67;;
48574;SDS011;34352;51.084;3.712;2022-08-19T07:03:36;29.33;;;17.75;;
48574;SDS011;34352;51.084;3.712;2022-08-19T07:06:04;24.58;;;16.95;;
48574;SDS011;34352;51.084;3.712;2022-08-19T07:08:32;33.58;;;18.67;;
48574;SDS011;34352;51.084;3.712;2022-08-19T07:10:59;27.92;;;18.02;;
48574;SDS011;34352;51.084;3.712;2022-08-19T07:13:25;28.48;;;17.65;;
48574;SDS011;34352;51.084;3.712;2022-08-19T07:15:50;29.27;;;18.60;;
48574;SDS011;34352;51.084;3.712;2022-08-19T07:18:20;27.25;;;19.30;;
48574;SDS011;34352;51.084;3.712;2022-08-19T07:20:47;28.75;;;18.88;;
48574;SDS011;34352;51.084;3.712;2022-08-19T07:23:13;26.92;;;19.38;;
48574;SDS011;34352;51.084;3.712;2022-08-19T07:25:39;29.48;;;19.58;;
48574;SDS011;34352;51.084;3.712;2022-08-19T07:28:05;34.53;;;19.73;;
48574;SDS011;34352;51.084;3.712;2022-08-19T07:30:35;30.02;;;20.33;;
48574;SDS011;34352;51.084;3.712;2022-08-19T07:33:02;30.67;;;21.27;;
48574;SDS011;34352;51.084;3.712;2022-08-19T07:35:28;29.85;;;20.10;;
48574;SDS011;34352;51.084;3.712;2022-08-19T07:37:54;29.80;;;19.80;;
48574;SDS011;34352;51.084;3.712;2022-08-19T07:40:20;28.85;;;20.10;;
48574;SDS011;34352;51.084;3.712;2022-08-19T07:42:46;27.50;;;19.27;;
48574;SDS011;34352;51.084;3.712;2022-08-19T07:45:13;32.33;;;21.70;;
48574;SDS011;34352;51.084;3.712;2022-08-19T07:47:40;31.42;;;19.95;;
48574;SDS011;34352;51.084;3.712;2022-08-19T07:50:07;32.25;;;21.90;;
48574;SDS011;34352;51.084;3.712;2022-08-19T07:52:36;35.08;;;20.95;;
48574;SDS011;34352;51.084;3.712;2022-08-19T07:55:10;32.35;;;21.58;;
48574;SDS011;34352;51.084;3.712;2022-08-19T07:57:36;36.22;;;22.35;;
48574;SDS011;34352;51.084;3.712;2022-08-19T08:00:03;35.40;;;22.58;;
48574;SDS011;34352;51.084;3.712;2022-08-19T08:02:29;34.33;;;22.75;;
48574;SDS011;34352;51.084;3.712;2022-08-19T08:04:55;34.95;;;22.88;;
48574;SDS011;34352;51.084;3.712;2022-08-19T08:07:39;35.72;;;22.60;;
48574;SDS011;34352;51.084;3.712;2022-08-19T08:10:23;32.50;;;23.00;;
48574;SDS011;34352;51.084;3.712;2022-08-19T08:12:49;39.47;;;23.77;;
48574;SDS011;34352;51.084;3.712;2022-08-19T08:15:15;33.58;;;22.27;;
48574;SDS011;34352;51.084;3.712;2022-08-19T08:17:41;29.88;;;20.55;;
48574;SDS011;34352;51.084;3.712;2022-08-19T08:20:08;33.97;;;21.20;;
48574;SDS011;34352;51.084;3.712;2022-08-19T08:22:34;32.25;;;20.95;;
48574;SDS011;34352;51.084;3.712;2022-08-19T08:25:20;32.80;;;20.85;;
48574;SDS011;34352;51.084;3.712;2022-08-19T08:27:48;30.25;;;19.73;;
48574;SDS011;34352;51.084;3.712;2022-08-19T08:30:18;31.77;;;18.77;;
48574;SDS011;34352;51.084;3.712;2022-08-19T08:35:14;28.55;;;19.02;;
48574;SDS011;34352;51.084;3.712;2022-08-19T08:37:41;27.33;;;18.65;;
48574;SDS011;34352;51.084;3.712;2022-08-19T08:43:03;27.00;;;18.92;;
48574;SDS011;34352;51.084;3.712;2022-08-19T08:45:33;25.50;;;19.00;;
48574;SDS011;34352;51.084;3.712;2022-08-19T08:48:03;26.92;;;19.85;;
48574;SDS011;34352;51.084;3.712;2022-08-19T08:50:49;27.17;;;16.90;;
48574;SDS011;34352;51.084;3.712;2022-08-19T08:53:19;22.10;;;17.35;;
48574;SDS011;34352;51.084;3.712;2022-08-19T08:55:46;25.20;;;18.55;;
48574;SDS011;34352;51.084;3.712;2022-08-19T08:58:25;26.27;;;18.50;;
48574;SDS011;34352;51.084;3.712;2022-08-19T09:01:12;27.33;;;18.02;;
48574;SDS011;34352;51.084;3.712;2022-08-19T09:03:38;23.67;;;17.85;;
48574;SDS011;34352;51.084;3.712;2022-08-19T09:06:07;24.25;;;17.90;;
48574;SDS011;34352;51.084;3.712;2022-08-19T09:08:55;23.98;;;17.67;;
48574;SDS011;34352;51.084;3.712;2022-08-19T09:17:10;13.95;;;9.43;;
48574;SDS011;34352;51.084;3.712;2022-08-19T09:19:46;12.85;;;7.32;;
48574;SDS011;34352;51.084;3.712;2022-08-19T09:22:13;8.80;;;6.38;;
48574;SDS011;34352;51.084;3.712;2022-08-19T09:24:39;11.75;;;6.38;;
48574;SDS011;34352;51.084;3.712;2022-08-19T09:27:05;7.75;;;5.50;;
48574;SDS011;34352;51.084;3.712;2022-08-19T09:29:31;8.68;;;5.57;;
48574;SDS011;34352;51.084;3.712;2022-08-19T09:31:57;7.65;;;5.13;;
48574;SDS011;34352;51.084;3.712;2022-08-19T09:34:22;10.95;;;6.97;;
48574;SDS011;34352;51.084;3.712;2022-08-19T09:36:48;10.05;;;6.32;;
48574;SDS011;34352;51.084;3.712;2022-08-19T09:39:19;7.32;;;6.30;;
48574;SDS011;34352;51.084;3.712;2022-08-19T09:41:45;9.95;;;5.85;;
48574;SDS011;34352;51.084;3.712;2022-08-19T09:44:11;7.57;;;5.90;;
48574;SDS011;34352;51.084;3.712;2022-08-19T09:46:37;6.93;;;5.35;;
48574;SDS011;34352;51.084;3.712;2022-08-19T09:49:03;7.88;;;5.72;;
48574;SDS011;34352;51.084;3.712;2022-08-19T09:51:31;8.00;;;5.55;;
48574;SDS011;34352;51.084;3.712;2022-08-19T09:54:01;7.05;;;5.10;;
48574;SDS011;34352;51.084;3.712;2022-08-19T09:56:27;8.20;;;5.10;;
48574;SDS011;34352;51.084;3.712;2022-08-19T09:58:55;8.13;;;4.97;;
48574;SDS011;34352;51.084;3.712;2022-08-19T10:01:24;8.90;;;4.93;;
48574;SDS011;34352;51.084;3.712;2022-08-19T10:03:52;5.25;;;4.75;;
48574;SDS011;34352;51.084;3.712;2022-08-19T10:06:21;6.72;;;4.57;;
48574;SDS011;34352;51.084;3.712;2022-08-19T10:08:49;7.93;;;4.63;;
48574;SDS011;34352;51.084;3.712;2022-08-19T10:11:16;5.10;;;3.80;;
48574;SDS011;34352;51.084;3.712;2022-08-19T10:13:42;4.70;;;4.00;;
48574;SDS011;34352;51.084;3.712;2022-08-19T10:16:09;6.13;;;4.05;;
48574;SDS011;34352;51.084;3.712;2022-08-19T10:18:38;5.82;;;4.13;;
48574;SDS011;34352;51.084;3.712;2022-08-19T10:21:11;9.60;;;4.18;;
48574;SDS011;34352;51.084;3.712;2022-08-19T10:23:42;6.65;;;3.78;;
48574;SDS011;34352;51.084;3.712;2022-08-19T10:26:11;5.78;;;4.32;;
48574;SDS011;34352;51.084;3.712;2022-08-19T10:28:39;6.45;;;3.92;;
48574;SDS011;34352;51.084;3.712;2022-08-19T10:31:12;6.53;;;3.85;;
48574;SDS011;34352;51.084;3.712;2022-08-19T10:33:40;7.45;;;3.58;;
48574;SDS011;34352;51.084;3.712;2022-08-19T10:36:11;4.93;;;3.72;;
48574;SDS011;34352;51.084;3.712;2022-08-19T10:38:40;6.38;;;3.90;;
48574;SDS011;34352;51.084;3.712;2022-08-19T10:41:07;4.88;;;3.72;;
48574;SDS011;34352;51.084;3.712;2022-08-19T10:43:34;6.80;;;4.15;;
48574;SDS011;34352;51.084;3.712;2022-08-19T10:46:04;4.78;;;3.72;;
48574;SDS011;34352;51.084;3.712;2022-08-19T10:48:31;6.18;;;4.10;;
48574;SDS011;34352;51.084;3.712;2022-08-19T10:50:58;6.43;;;3.90;;
48574;SDS011;34352;51.084;3.712;2022-08-19T10:53:42;5.60;;;3.50;;
48574;SDS011;34352;51.084;3.712;2022-08-19T10:56:07;4.93;;;3.67;;
48574;SDS011;34352;51.084;3.712;2022-08-19T10:58:51;6.22;;;4.00;;
48574;SDS011;34352;51.084;3.712;2022-08-19T11:01:17;4.90;;;4.50;;
48574;SDS011;34352;51.084;3.712;2022-08-19T11:03:43;5.85;;;4.78;;
48574;SDS011;34352;51.084;3.712;2022-08-19T11:06:10;8.30;;;5.30;;
48574;SDS011;34352;51.084;3.712;2022-08-19T11:08:36;6.38;;;4.82;;
48574;SDS011;34352;51.084;3.712;2022-08-19T11:11:03;6.32;;;5.43;;
48574;SDS011;34352;51.084;3.712;2022-08-19T11:13:33;7.28;;;4.75;;
48574;SDS011;34352;51.084;3.712;2022-08-19T11:18:30;5.10;;;4.60;;
48574;SDS011;34352;51.084;3.712;2022-08-19T11:21:04;5.05;;;4.38;;
48574;SDS011;34352;51.084;3.712;2022-08-19T11:23:35;6.55;;;5.32;;
48574;SDS011;34352;51.084;3.712;2022-08-19T11:26:02;7.25;;;5.65;;
48574;SDS011;34352;51.084;3.712;2022-08-19T11:28:28;6.75;;;5.93;;
48574;SDS011;34352;51.084;3.712;2022-08-19T11:30:54;8.75;;;7.72;;
48574;SDS011;34352;51.084;3.712;2022-08-19T11:33:20;8.48;;;7.75;;
48574;SDS011;34352;51.084;3.712;2022-08-19T11:35:45;9.15;;;8.18;;
48574;SDS011;34352;51.084;3.712;2022-08-19T11:38:13;9.68;;;8.02;;
48574;SDS011;34352;51.084;3.712;2022-08-19T11:40:39;9.48;;;8.38;;
48574;SDS011;34352;51.084;3.712;2022-08-19T11:43:08;9.40;;;8.27;;
48574;SDS011;34352;51.084;3.712;2022-08-19T11:45:34;8.93;;;8.02;;
48574;SDS011;34352;51.084;3.712;2022-08-19T11:48:01;8.90;;;8.07;;
48574;SDS011;34352;51.084;3.712;2022-08-19T11:50:28;8.13;;;7.32;;
48574;SDS011;34352;51.084;3.712;2022-08-19T11:52:54;10.73;;;6.68;;
48574;SDS011;34352;51.084;3.712;2022-08-19T11:55:21;9.13;;;7.00;;
48574;SDS011;34352;51.084;3.712;2022-08-19T11:57:47;9.13;;;6.55;;
48574;SDS011;34352;51.084;3.712;2022-08-19T12:00:13;7.68;;;6.90;;
48574;SDS011;34352;51.084;3.712;2022-08-19T12:02:39;8.60;;;7.70;;
48574;SDS011;34352;51.084;3.712;2022-08-19T12:05:05;7.57;;;6.88;;
48574;SDS011;34352;51.084;3.712;2022-08-19T12:07:33;7.65;;;6.82;;
48574;SDS011;34352;51.084;3.712;2022-08-19T12:09:59;9.90;;;5.28;;
48574;SDS011;34352;51.084;3.712;2022-08-19T12:12:25;8.75;;;5.60;;
48574;SDS011;34352;51.084;3.712;2022-08-19T12:14:52;9.93;;;6.50;;
48574;SDS011;34352;51.084;3.712;2022-08-19T12:17:25;7.53;;;5.57;;
48574;SDS011;34352;51.084;3.712;2022-08-19T12:19:52;6.38;;;5.40;;
48574;SDS011;34352;51.084;3.712;2022-08-19T12:22:19;7.90;;;6.65;;
48574;SDS011;34352;51.084;3.712;2022-08-19T12:24:46;7.78;;;6.47;;
48574;SDS011;34352;51.084;3.712;2022-08-19T12:27:15;8.68;;;6.60;;
48574;SDS011;34352;51.084;3.712;2022-08-19T12:29:42;6.07;;;5.53;;
48574;SDS011;34352;51.084;3.712;2022-08-19T12:32:09;6.65;;;5.45;;
48574;SDS011;34352;51.084;3.712;2022-08-19T12:34:35;6.95;;;6.35;;
48574;SDS011;34352;51.084;3.712;2022-08-19T12:37:02;6.40;;;5.80;;
48574;SDS011;34352;51.084;3.712;2022-08-19T12:39:29;5.82;;;5.20;;
48574;SDS011;34352;51.084;3.712;2022-08-19T12:41:58;6.63;;;5.03;;
48574;SDS011;34352;51.084;3.712;2022-08-19T12:44:23;5.90;;;4.40;;
48574;SDS011;34352;51.084;3.712;2022-08-19T12:46:49;5.07;;;3.90;;
48574;SDS011;34352;51.084;3.712;2022-08-19T12:49:15;4.40;;;4.00;;
48574;SDS011;34352;51.084;3.712;2022-08-19T12:51:40;6.15;;;4.40;;
48574;SDS011;34352;51.084;3.712;2022-08-19T12:54:06;4.47;;;4.07;;
48574;SDS011;34352;51.084;3.712;2022-08-19T12:56:32;6.63;;;3.70;;
48574;SDS011;34352;51.084;3.712;2022-08-19T12:59:00;5.38;;;3.40;;
48574;SDS011;34352;51.084;3.712;2022-08-19T13:01:27;7.10;;;3.63;;
48574;SDS011;34352;51.084;3.712;2022-08-19T13:03:57;4.57;;;3.20;;
48574;SDS011;34352;51.084;3.712;2022-08-19T13:06:24;28.65;;;3.45;;
48574;SDS011;34352;51.084;3.712;2022-08-19T13:08:51;4.25;;;3.13;;
48574;SDS011;34352;51.084;3.712;2022-08-19T13:11:18;5.20;;;3.17;;
48574;SDS011;34352;51.084;3.712;2022-08-19T13:13:46;3.17;;;2.88;;
48574;SDS011;34352;51.084;3.712;2022-08-19T13:16:13;3.00;;;2.70;;
48574;SDS011;34352;51.084;3.712;2022-08-19T13:18:40;4.10;;;3.30;;
48574;SDS011;34352;51.084;3.712;2022-08-19T13:21:08;4.90;;;3.25;;
48574;SDS011;34352;51.084;3.712;2022-08-19T13:23:37;8.35;;;4.18;;
48574;SDS011;34352;51.084;3.712;2022-08-19T13:26:04;8.63;;;4.28;;
48574;SDS011;34352;51.084;3.712;2022-08-19T13:28:31;5.88;;;3.45;;
48574;SDS011;34352;51.084;3.712;2022-08-19T13:31:20;6.53;;;3.20;;
48574;SDS011;34352;51.084;3.712;2022-08-19T13:34:05;6.78;;;3.40;;
48574;SDS011;34352;51.084;3.712;2022-08-19T13:36:32;5.18;;;2.83;;
48574;SDS011;34352;51.084;3.712;2022-08-19T13:38:58;4.65;;;2.70;;
48574;SDS011;34352;51.084;3.712;2022-08-19T13:41:25;7.85;;;2.95;;
48574;SDS011;34352;51.084;3.712;2022-08-19T13:43:51;6.82;;;2.55;;
48574;SDS011;34352;51.084;3.712;2022-08-19T13:46:19;4.53;;;1.92;;
48574;SDS011;34352;51.084;3.712;2022-08-19T13:48:46;3.58;;;2.13;;
48574;SDS011;34352;51.084;3.712;2022-08-19T13:51:16;8.07;;;2.20;;
48574;SDS011;34352;51.084;3.712;2022-08-19T13:53:42;4.15;;;2.58;;
48574;SDS011;34352;51.084;3.712;2022-08-19T13:56:10;4.65;;;3.05;;
48574;SDS011;34352;51.084;3.712;2022-08-19T13:58:38;6.03;;;2.50;;
48574;SDS011;34352;51.084;3.712;2022-08-19T14:01:04;4.95;;;3.30;;
48574;SDS011;34352;51.084;3.712;2022-08-19T14:03:31;7.85;;;3.75;;
48574;SDS011;34352;51.084;3.712;2022-08-19T14:05:58;10.85;;;3.67;;
48574;SDS011;34352;51.084;3.712;2022-08-19T14:08:24;8.55;;;3.75;;
48574;SDS011;34352;51.084;3.712;2022-08-19T14:10:50;5.55;;;4.57;;
48574;SDS011;34352;51.084;3.712;2022-08-19T14:13:17;7.35;;;5.65;;
48574;SDS011;34352;51.084;3.712;2022-08-19T14:15:44;7.80;;;6.00;;
48574;SDS011;34352;51.084;3.712;2022-08-19T14:18:11;9.45;;;7.72;;
48574;SDS011;34352;51.084;3.712;2022-08-19T14:20:37;10.55;;;7.50;;
48574;SDS011;34352;51.084;3.712;2022-08-19T14:23:02;12.30;;;8.68;;
48574;SDS011;34352;51.084;3.712;2022-08-19T14:25:30;11.48;;;9.32;;
48574;SDS011;34352;51.084;3.712;2022-08-19T14:27:56;10.18;;;9.10;;
48574;SDS011;34352;51.084;3.712;2022-08-19T14:30:24;11.82;;;9.57;;
48574;SDS011;34352;51.084;3.712;2022-08-19T14:32:52;13.32;;;9.90;;
48574;SDS011;34352;51.084;3.712;2022-08-19T14:35:19;12.40;;;10.20;;
48574;SDS011;34352;51.084;3.712;2022-08-19T14:37:47;18.20;;;10.75;;
48574;SDS011;34352;51.084;3.712;2022-08-19T14:40:14;14.20;;;8.98;;
48574;SDS011;34352;51.084;3.712;2022-08-19T14:42:42;11.63;;;9.13;;
48574;SDS011;34352;51.084;3.712;2022-08-19T14:45:09;11.02;;;8.45;;
48574;SDS011;34352;51.084;3.712;2022-08-19T14:47:37;12.25;;;8.27;;
48574;SDS011;34352;51.084;3.712;2022-08-19T14:50:04;10.18;;;7.18;;
48574;SDS011;34352;51.084;3.712;2022-08-19T14:52:31;12.07;;;7.60;;
48574;SDS011;34352;51.084;3.712;2022-08-19T14:54:57;10.25;;;6.97;;
48574;SDS011;34352;51.084;3.712;2022-08-19T14:57:23;10.68;;;7.63;;